createdAt,value
2023-03-28T00:02:10.570Z,101333.28
2023-03-28T00:07:14.825Z,101343.28
2023-03-28T00:12:16.588Z,101347.06
2023-03-28T00:17:18.419Z,101344.75
2023-03-28T00:22:21.603Z,101345.75
2023-03-28T00:27:23.457Z,101356.88
2023-03-28T00:32:25.321Z,101364.84
2023-03-28T00:37:28.401Z,101368.25
2023-03-28T00:42:30.703Z,101363.28
2023-03-28T00:47:36.826Z,101374.81
2023-03-28T00:52:42.445Z,101374.31
2023-03-28T00:57:44.638Z,101385.34
2023-03-28T01:02:51.253Z,101386.59
2023-03-28T01:07:57.704Z,101390.31
2023-03-28T01:12:59.905Z,101393.38
2023-03-28T01:18:03.064Z,101402.63
2023-03-28T01:23:34.269Z,101406.00
2023-03-28T01:28:50.219Z,101410.91
2023-03-28T01:34:11.915Z,101414.31
2023-03-28T01:39:17.074Z,101413.44
2023-03-28T01:44:22.666Z,101413.50
2023-03-28T01:49:28.203Z,101427.13
2023-03-28T01:54:33.198Z,101432.78
2023-03-28T01:59:37.248Z,101435.75
2023-03-28T02:05:06.916Z,101439.44
2023-03-28T02:10:14.726Z,101446.47
2023-03-28T02:15:39.859Z,101442.03
2023-03-28T02:21:01.710Z,101450.44
2023-03-28T02:26:31.009Z,101456.38
2023-03-28T02:31:42.718Z,101458.94
2023-03-28T02:36:51.462Z,101471.94
2023-03-28T02:42:03.330Z,101479.47
2023-03-28T02:47:08.434Z,101475.31
2023-03-28T02:52:14.757Z,101479.66
2023-03-28T02:57:20.884Z,101491.81
2023-03-28T03:02:28.821Z,101492.94
2023-03-28T03:07:30.860Z,101508.22
2023-03-28T03:12:33.966Z,101504.06
2023-03-28T03:17:35.745Z,101506.84
2023-03-28T03:22:37.629Z,101514.50
2023-03-28T03:27:41.420Z,101512.97
2023-03-28T03:32:45.545Z,101519.16
2023-03-28T03:37:47.484Z,101518.34
2023-03-28T03:42:50.542Z,101533.44
2023-03-28T03:47:52.417Z,101538.50
2023-03-28T03:52:54.204Z,101545.91
2023-03-28T03:58:03.153Z,101547.75
2023-03-28T04:03:06.355Z,101548.75
2023-03-28T04:08:08.461Z,101556.41
2023-03-28T04:13:14.682Z,101555.28
2023-03-28T04:18:20.309Z,101550.19
2023-03-28T04:23:26.051Z,101560.56
2023-03-28T04:28:29.773Z,101556.22
2023-03-28T04:33:35.966Z,101569.38
2023-03-28T04:38:41.667Z,101571.44
2023-03-28T04:44:17.093Z,101568.81
2023-03-28T04:49:27.780Z,101574.28
2023-03-28T04:54:29.776Z,101589.81
2023-03-28T04:59:41.858Z,101587.31
2023-03-28T05:04:45.468Z,101595.06
2023-03-28T05:09:48.829Z,101620.34
2023-03-28T05:14:51.893Z,101631.00
2023-03-28T05:19:54.157Z,101636.16
2023-03-28T05:24:58.627Z,101647.91
2023-03-28T05:30:02.318Z,101647.16
2023-03-28T05:35:07.423Z,101663.03
2023-03-28T05:40:10.983Z,101665.16
2023-03-28T05:45:16.385Z,101675.16
2023-03-28T05:50:41.780Z,101681.50
2023-03-28T05:55:43.664Z,101676.75
2023-03-28T06:00:47.317Z,101670.16
2023-03-28T06:05:49.418Z,101682.63
2023-03-28T06:11:01.155Z,101676.41
2023-03-28T06:16:09.640Z,101674.31
2023-03-28T06:21:11.519Z,101679.28
2023-03-28T06:26:13.651Z,101676.81
2023-03-28T06:31:19.705Z,101689.63
2023-03-28T06:36:21.742Z,101687.50
2023-03-28T06:41:24.970Z,101689.88
2023-03-28T06:46:28.117Z,101691.53
2023-03-28T06:51:29.924Z,101698.50
2023-03-28T06:56:31.909Z,101707.81
2023-03-28T07:01:35.696Z,101718.38
2023-03-28T07:06:41.346Z,101733.38
2023-03-28T07:11:43.322Z,101738.81
2023-03-28T07:16:46.503Z,101736.63
2023-03-28T07:21:48.423Z,101751.03
2023-03-28T07:26:51.987Z,101747.53
2023-03-28T07:31:56.441Z,101763.19
2023-03-28T07:37:00.218Z,101763.75
2023-03-28T07:42:18.522Z,101767.63
2023-03-28T07:47:21.607Z,101769.31
2023-03-28T07:52:23.854Z,101769.94
2023-03-28T07:57:25.916Z,101762.00
2023-03-28T08:02:46.649Z,101783.28
2023-03-28T08:07:52.406Z,101780.59
2023-03-28T08:12:54.406Z,101767.63
2023-03-28T08:17:57.910Z,101767.88
2023-03-28T08:22:59.868Z,101774.09
2023-03-28T08:28:24.279Z,101772.69
2023-03-28T08:33:29.007Z,101788.75
2023-03-28T08:38:31.430Z,101794.81
2023-03-28T08:43:49.923Z,101792.00
2023-03-28T08:48:53.103Z,101799.63
2023-03-28T08:54:00.845Z,101816.75
2023-03-28T08:59:05.743Z,101808.84
2023-03-28T09:04:13.918Z,101808.91
2023-03-28T09:09:34.111Z,101805.94
2023-03-28T09:15:13.771Z,101784.09
2023-03-28T09:20:19.338Z,101797.91
2023-03-28T09:25:29.583Z,101788.16
2023-03-28T09:30:33.356Z,101781.41
2023-03-28T09:35:36.782Z,101801.09
2023-03-28T09:40:38.601Z,101799.56
2023-03-28T09:46:11.068Z,101795.63
2023-03-28T09:51:17.995Z,101809.84
2023-03-28T09:56:26.238Z,101813.75
2023-03-28T10:01:35.974Z,101816.06
2023-03-28T10:07:17.644Z,101818.66
2023-03-28T10:12:32.709Z,101814.47
2023-03-28T10:17:36.716Z,101819.19
2023-03-28T10:22:40.627Z,101795.00
2023-03-28T10:27:42.537Z,101798.56
2023-03-28T10:32:44.532Z,101809.59
2023-03-28T10:38:03.683Z,101811.00
2023-03-28T10:43:31.407Z,101820.38
2023-03-28T10:48:42.493Z,101818.03
2023-03-28T10:53:57.734Z,101808.78
2023-03-28T10:59:25.527Z,101804.91
2023-03-28T11:04:37.377Z,101799.03
2023-03-28T11:09:45.626Z,101791.50
2023-03-28T11:15:08.300Z,101798.19
2023-03-28T11:20:25.268Z,101792.88
2023-03-28T11:25:37.332Z,101786.19
2023-03-28T11:31:00.280Z,101783.53
2023-03-28T11:36:15.309Z,101784.25
2023-03-28T11:41:19.133Z,101781.22
2023-03-28T11:46:38.989Z,101789.69
2023-03-28T11:51:42.926Z,101787.38
2023-03-28T11:56:51.636Z,101784.75
2023-03-28T12:02:02.238Z,101797.81
2023-03-28T12:07:10.332Z,101802.34
2023-03-28T12:12:21.818Z,101803.50
2023-03-28T12:17:25.173Z,101802.53
2023-03-28T12:22:30.368Z,101802.94
2023-03-28T12:27:42.140Z,101808.13
2023-03-28T12:32:52.085Z,101801.19
2023-03-28T12:38:01.534Z,101788.47
2023-03-28T12:43:05.010Z,101778.13
2023-03-28T12:48:08.472Z,101777.31
2023-03-28T12:53:12.552Z,101783.38
2023-03-28T12:58:25.268Z,101783.16
2023-03-28T13:03:35.351Z,101776.34
2023-03-28T13:08:46.408Z,101771.88
2023-03-28T13:13:53.077Z,101769.94
2023-03-28T13:19:04.656Z,101764.41
2023-03-28T13:24:07.927Z,101762.00
2023-03-28T13:29:10.930Z,101768.66
2023-03-28T13:34:17.974Z,101752.00
2023-03-28T13:39:21.679Z,101752.09
2023-03-28T13:44:29.472Z,101739.72
2023-03-28T13:49:36.116Z,101743.81
2023-03-28T13:54:37.834Z,101737.28
2023-03-28T13:59:46.449Z,101729.50
2023-03-28T14:04:52.597Z,101726.63
2023-03-28T14:09:55.985Z,101717.16
2023-03-28T14:14:59.389Z,101707.66
2023-03-28T14:20:01.941Z,101699.06
2023-03-28T14:25:05.250Z,101694.84
2023-03-28T14:30:18.077Z,101685.19
2023-03-28T14:35:21.797Z,101684.44
2023-03-28T14:40:32.374Z,101672.97
2023-03-28T14:45:37.707Z,101679.25
2023-03-28T14:50:39.832Z,101664.59
2023-03-28T14:55:42.437Z,101662.81
2023-03-28T15:00:46.599Z,101653.75
2023-03-28T15:05:49.220Z,101654.38
2023-03-28T15:10:51.420Z,101642.72
2023-03-28T15:15:55.205Z,101635.97
2023-03-28T15:20:58.640Z,101630.88
2023-03-28T15:26:01.530Z,101638.09
2023-03-28T15:31:05.411Z,101630.22
2023-03-28T15:36:08.336Z,101623.72
2023-03-28T15:41:11.883Z,101610.13
2023-03-28T15:46:15.016Z,101614.28
2023-03-28T15:51:17.871Z,101609.63
2023-03-28T15:56:22.614Z,101604.19
2023-03-28T16:01:26.939Z,101597.22
2023-03-28T16:06:32.338Z,101603.16
2023-03-28T16:11:35.220Z,101592.19
2023-03-28T16:16:57.225Z,101584.63
2023-03-28T16:22:09.336Z,101584.44
2023-03-28T16:27:11.010Z,101575.66
2023-03-28T16:32:14.881Z,101573.91
2023-03-28T16:37:16.911Z,101572.00
2023-03-28T16:42:20.834Z,101564.91
2023-03-28T16:47:24.075Z,101566.22
2023-03-28T16:52:28.483Z,101566.03
2023-03-28T16:57:31.538Z,101557.22
2023-03-28T17:02:34.778Z,101565.63
2023-03-28T17:07:36.824Z,101570.44
2023-03-28T17:12:38.518Z,101567.66
2023-03-28T17:17:41.709Z,101559.63
2023-03-28T17:22:44.154Z,101561.09
2023-03-28T17:27:45.870Z,101566.06
2023-03-28T17:32:49.049Z,101566.69
2023-03-28T17:37:52.896Z,101563.66
2023-03-28T17:42:54.618Z,101565.16
2023-03-28T17:47:57.730Z,101559.78
2023-03-28T17:52:59.509Z,101552.50
2023-03-28T17:58:01.224Z,101548.84
2023-03-28T18:03:04.487Z,101548.69
2023-03-28T18:08:28.267Z,101536.44
2023-03-28T18:13:29.911Z,101528.31
2023-03-28T18:18:33.226Z,101529.63
2023-03-28T18:23:35.140Z,101528.50
2023-03-28T18:28:37.074Z,101525.03
2023-03-28T18:33:41.046Z,101512.81
2023-03-28T18:38:43.509Z,101524.16
2023-03-28T18:43:45.588Z,101523.31
2023-03-28T18:48:48.623Z,101525.06
2023-03-28T18:53:50.348Z,101523.31
2023-03-28T18:58:52.275Z,101525.59
2023-03-28T19:03:55.510Z,101510.22
2023-03-28T19:08:57.481Z,101505.53
2023-03-28T19:13:59.325Z,101500.06
2023-03-28T19:19:02.455Z,101493.56
2023-03-28T19:24:04.819Z,101482.44
2023-03-28T19:29:06.561Z,101478.91
2023-03-28T19:34:10.842Z,101482.22
2023-03-28T19:39:12.649Z,101478.78
2023-03-28T19:44:14.388Z,101477.75
2023-03-28T19:49:17.598Z,101473.44
2023-03-28T19:54:19.330Z,101470.69
2023-03-28T19:59:21.041Z,101462.28
2023-03-28T20:04:27.521Z,101451.72
2023-03-28T20:09:29.322Z,101450.47
2023-03-28T20:14:31.555Z,101438.97
2023-03-28T20:19:35.276Z,101440.59
2023-03-28T20:24:37.321Z,101436.13
2023-03-28T20:29:39.123Z,101432.47
2023-03-28T20:34:42.362Z,101425.22
2023-03-28T20:39:48.161Z,101423.53
2023-03-28T20:44:50.132Z,101419.78
2023-03-28T20:49:56.811Z,101418.06
2023-03-28T20:54:58.895Z,101404.00
2023-03-28T21:00:01.231Z,101398.66
2023-03-28T21:05:04.797Z,101399.53
2023-03-28T21:10:09.310Z,101394.19
2023-03-28T21:15:11.704Z,101386.25
2023-03-28T21:20:14.839Z,101380.13
2023-03-28T21:25:16.908Z,101374.19
2023-03-28T21:30:19.400Z,101364.69
2023-03-28T21:35:22.509Z,101360.38
2023-03-28T21:40:24.356Z,101352.75
2023-03-28T21:45:26.306Z,101351.91
2023-03-28T21:50:31.464Z,101350.25
2023-03-28T21:55:33.198Z,101346.00
2023-03-28T22:00:35.190Z,101343.75
2023-03-28T22:05:42.660Z,101336.91
2023-03-28T22:10:46.439Z,101340.94
2023-03-28T22:15:49.479Z,101333.56
2023-03-28T22:20:55.548Z,101338.63
2023-03-28T22:25:58.881Z,101321.22
2023-03-28T22:31:01.065Z,101322.03
2023-03-28T22:36:04.905Z,101307.16
2023-03-28T22:41:07.558Z,101305.50
2023-03-28T22:46:10.383Z,101296.06
2023-03-28T22:51:15.641Z,101288.34
2023-03-28T22:56:17.884Z,101281.16
2023-03-28T23:01:23.089Z,101280.53
2023-03-28T23:06:27.176Z,101276.31
2023-03-28T23:11:28.979Z,101272.00
2023-03-28T23:16:30.750Z,101270.50
2023-03-28T23:21:34.447Z,101270.56
2023-03-28T23:26:36.189Z,101250.94
2023-03-28T23:31:38.341Z,101254.41
2023-03-28T23:36:41.494Z,101246.72
2023-03-28T23:41:43.216Z,101249.22
2023-03-28T23:46:45.702Z,101239.66
2023-03-28T23:51:48.729Z,101224.97
2023-03-28T23:56:50.516Z,101223.41
